Time;durP1;ratioP1;P1;durP2;ratioP2;P2;SDS_P1;SDS_P2;PMS_P1;PMS_P2;Temp;Humidity;BMP_temperature;BMP_pressure;BME280_temperature;BME280_humidity;BME280_pressure;Samples;Min_cycle;Max_cycle;Signal;HPM_P1;HPM_P2
2022/03/14 00:02:23;;;;;;;;;;;;;;;4.81;32.02;98058.69;5155577;27;19935;-88
2022/03/14 00:04:51;;;;;;;;;;;;;;;4.78;31.84;98061.91;5149391;27;19923;-87
2022/03/14 00:07:22;;;;;;;;;;;;;;;4.82;32.42;98068.34;5116028;27;19924;-87
2022/03/14 00:09:50;;;;;;;;;;;;;;;4.83;32.35;98075.34;5136072;27;19926;-88
2022/03/14 00:12:25;;;;;;;;;;;;;;;4.71;32.33;98079.13;5140598;27;19983;-84
2022/03/14 00:14:56;;;;;;;;;;;;;;;4.68;32.89;98087.72;5158791;27;19924;-89
2022/03/14 00:17:25;;;;;;;;;;;;;;;4.75;32.41;98075.91;5140573;27;19958;-86
2022/03/14 00:19:53;;;;;;;;;;;;;;;4.67;32.66;98086.13;5157992;27;20436;-86
2022/03/14 00:22:22;;;;;;;;;;;;;;;4.90;32.33;98089.34;5136727;27;19923;-86
2022/03/14 00:24:50;;;;;;;;;;;;;;;4.51;33.32;98092.56;5160545;27;19926;-89
2022/03/14 00:27:18;;;;;;;;;;;;;;;4.42;33.78;98096.84;5162755;27;19997;-86
2022/03/14 00:29:46;;;;;;;;;;;;;;;4.39;34.03;98097.38;5150018;27;19923;-87
2022/03/14 00:32:14;;;;;;;;;;;;;;;4.70;32.92;98100.94;5154045;27;19923;-87
2022/03/14 00:34:43;;;;;;;;;;;;;;;4.55;32.94;98099.03;5157073;27;19987;-89
2022/03/14 00:37:11;;;;;;;;;;;;;;;4.83;32.60;98102.28;5104696;27;19927;-90
2022/03/14 00:39:41;;;;;;;;;;;;;;;4.55;33.01;98100.91;5131574;27;19923;-87
2022/03/14 00:42:09;;;;;;;;;;;;;;;4.62;32.87;98101.44;5153517;27;19923;-85
2022/03/14 00:44:38;;;;;;;;;;;;;;;4.49;33.36;98107.38;5136169;27;19945;-87
2022/03/14 00:47:05;;;;;;;;;;;;;;;4.65;33.16;98107.13;5134441;27;19938;-87
2022/03/14 00:49:34;;;;;;;;;;;;;;;4.70;33.09;98115.19;5144519;27;20013;-88
2022/03/14 00:52:06;;;;;;;;;;;;;;;4.88;32.61;98113.84;5154717;27;20238;-85
2022/03/14 00:54:34;;;;;;;;;;;;;;;4.80;32.77;98111.72;5159648;27;20390;-85
2022/03/14 00:57:03;;;;;;;;;;;;;;;4.89;32.72;98110.06;5164268;27;20369;-88
2022/03/14 00:59:31;;;;;;;;;;;;;;;4.62;32.99;98118.41;5124154;27;19930;-86
2022/03/14 01:01:59;;;;;;;;;;;;;;;4.82;32.43;98123.00;5150994;27;20624;-86
2022/03/14 01:04:28;;;;;;;;;;;;;;;4.87;32.65;98122.19;5151689;27;19930;-86
2022/03/14 01:06:56;;;;;;;;;;;;;;;4.61;32.99;98127.56;5134042;27;19930;-87
2022/03/14 01:09:24;;;;;;;;;;;;;;;4.45;33.36;98123.22;5158590;27;19978;-85
2022/03/14 01:11:54;;;;;;;;;;;;;;;4.16;33.80;98117.50;5135699;27;19939;-88
2022/03/14 01:14:25;;;;;;;;;;;;;;;4.48;33.26;98130.78;5142505;27;19931;-88
2022/03/14 01:16:52;;;;;;;;;;;;;;;4.52;33.60;98126.44;5147341;27;20274;-84
2022/03/14 01:19:20;;;;;;;;;;;;;;;4.49;33.38;98116.25;5156912;27;19923;-88
2022/03/14 01:21:49;;;;;;;;;;;;;;;4.52;32.76;98118.38;5161427;27;19933;-86
2022/03/14 01:24:17;;;;;;;;;;;;;;;4.58;32.59;98117.34;5134853;27;19935;-86
2022/03/14 01:26:51;;;;;;;;;;;;;;;4.46;32.83;98125.63;5158990;27;19930;-87
2022/03/14 01:29:22;;;;;;;;;;;;;;;4.45;32.98;98140.16;5156177;27;20271;-89
2022/03/14 01:31:53;;;;;;;;;;;;;;;4.30;33.55;98137.44;5156308;27;20402;-88
2022/03/14 01:34:21;;;;;;;;;;;;;;;4.09;33.76;98133.06;5156277;27;19930;-86
2022/03/14 01:36:49;;;;;;;;;;;;;;;4.36;33.70;98141.75;5149273;27;19923;-88
2022/03/14 01:39:17;;;;;;;;;;;;;;;4.44;33.42;98137.75;5156623;27;19975;-85
2022/03/14 01:41:44;;;;;;;;;;;;;;;4.38;33.52;98134.25;5151199;27;20046;-85
2022/03/14 01:44:12;;;;;;;;;;;;;;;4.12;33.83;98140.63;5161419;27;19926;-87
2022/03/14 01:46:41;;;;;;;;;;;;;;;4.03;34.25;98142.19;5155673;27;19937;-86
2022/03/14 01:49:11;;;;;;;;;;;;;;;4.03;34.32;98144.88;5139512;27;19931;-86
2022/03/14 01:51:41;;;;;;;;;;;;;;;3.88;34.74;98159.84;5156104;27;19966;-87
2022/03/14 01:54:09;;;;;;;;;;;;;;;3.88;34.34;98167.13;5161148;27;20359;-82
2022/03/14 01:56:38;;;;;;;;;;;;;;;3.90;34.64;98165.00;5152681;27;20304;-87
2022/03/14 01:59:06;;;;;;;;;;;;;;;4.06;34.33;98163.19;5158066;27;19923;-85
2022/03/14 02:01:34;;;;;;;;;;;;;;;3.89;34.40;98169.56;5144883;27;19927;-88
2022/03/14 02:04:08;;;;;;;;;;;;;;;3.92;34.65;98176.28;5154761;27;19975;-86
2022/03/14 02:06:39;;;;;;;;;;;;;;;3.72;34.94;98179.66;5149616;27;20313;-86
2022/03/14 02:09:31;;;;;;;;;;;;;;;3.68;34.61;98184.78;5151834;27;19946;-84
2022/03/14 02:12:06;;;;;;;;;;;;;;;3.42;35.22;98193.72;5136897;27;20361;-85
2022/03/14 02:14:39;;;;;;;;;;;;;;;3.75;34.93;98199.84;5130589;27;20199;-82
2022/03/14 02:17:08;;;;;;;;;;;;;;;3.55;34.94;98206.69;5132668;27;19958;-85
2022/03/14 02:19:36;;;;;;;;;;;;;;;3.86;34.13;98217.66;5137448;27;19957;-86
2022/03/14 02:22:05;;;;;;;;;;;;;;;3.99;34.11;98210.97;5149339;27;19923;-86
2022/03/14 02:24:33;;;;;;;;;;;;;;;3.87;34.22;98209.31;5155373;27;20333;-85
2022/03/14 02:27:01;;;;;;;;;;;;;;;3.56;34.76;98218.25;5147905;27;19929;-86
2022/03/14 02:29:29;;;;;;;;;;;;;;;3.76;34.54;98222.97;5146440;27;19923;-85
2022/03/14 02:31:57;;;;;;;;;;;;;;;3.77;34.84;98229.94;5150366;27;19983;-82
2022/03/14 02:34:25;;;;;;;;;;;;;;;3.81;34.74;98236.44;5160400;27;19926;-83
2022/03/14 02:36:52;;;;;;;;;;;;;;;3.62;34.92;98234.16;5143875;27;19926;-84
2022/03/14 02:39:22;;;;;;;;;;;;;;;3.80;34.81;98241.00;5159648;27;19934;-86
2022/03/14 02:41:50;;;;;;;;;;;;;;;4.03;34.20;98244.34;5135158;27;21142;-88
2022/03/14 02:44:18;;;;;;;;;;;;;;;3.78;34.65;98255.75;5158270;27;20372;-87
2022/03/14 02:46:46;;;;;;;;;;;;;;;4.09;34.43;98254.88;5161974;27;20341;-85
2022/03/14 02:49:14;;;;;;;;;;;;;;;4.10;34.11;98256.50;5158596;27;19923;-85
2022/03/14 02:51:43;;;;;;;;;;;;;;;3.57;35.05;98262.84;5158866;27;19949;-86
2022/03/14 02:54:11;;;;;;;;;;;;;;;3.63;35.11;98273.41;5164089;27;19963;-85
2022/03/14 02:56:41;;;;;;;;;;;;;;;3.87;34.57;98273.00;5135193;27;19995;-83
2022/03/14 02:59:11;;;;;;;;;;;;;;;4.13;33.99;98280.16;5159261;27;19974;-87
2022/03/14 03:01:42;;;;;;;;;;;;;;;3.92;34.15;98291.88;5153252;27;20382;-83
2022/03/14 03:04:11;;;;;;;;;;;;;;;3.80;34.43;98296.63;5139204;27;19958;-85
2022/03/14 03:06:39;;;;;;;;;;;;;;;4.01;34.22;98301.06;5159529;27;19974;-86
2022/03/14 03:09:32;;;;;;;;;;;;;;;3.98;34.22;98306.97;5159303;27;19923;-89
2022/03/14 03:12:02;;;;;;;;;;;;;;;4.09;34.30;98319.41;5140166;27;19923;-82
2022/03/14 03:14:35;;;;;;;;;;;;;;;4.03;34.50;98315.06;5162899;27;20024;-85
2022/03/14 03:17:09;;;;;;;;;;;;;;;3.74;34.91;98337.97;5159452;27;19945;-86
2022/03/14 03:19:38;;;;;;;;;;;;;;;3.91;34.33;98349.38;5166340;27;19934;-88
2022/03/14 03:22:06;;;;;;;;;;;;;;;3.30;36.04;98344.28;5134502;27;19976;-84
2022/03/14 03:24:34;;;;;;;;;;;;;;;3.56;35.51;98353.38;5138617;27;19931;-83
2022/03/14 03:27:03;;;;;;;;;;;;;;;3.31;35.77;98353.16;5147356;27;20383;-87
2022/03/14 03:29:31;;;;;;;;;;;;;;;3.59;35.42;98362.81;5159320;27;19968;-87
2022/03/14 03:31:59;;;;;;;;;;;;;;;3.45;35.77;98366.97;5164875;27;20370;-87
2022/03/14 03:34:27;;;;;;;;;;;;;;;3.72;35.37;98367.75;5163031;27;19923;-87
2022/03/14 03:36:55;;;;;;;;;;;;;;;3.86;34.71;98368.97;5158499;27;19931;-83
2022/03/14 03:39:24;;;;;;;;;;;;;;;3.95;34.78;98380.06;5132333;27;19983;-87
2022/03/14 03:41:52;;;;;;;;;;;;;;;3.97;34.80;98383.31;5159359;27;19933;-85
2022/03/14 03:44:21;;;;;;;;;;;;;;;3.90;34.87;98380.03;5159341;27;20394;-86
2022/03/14 03:46:49;;;;;;;;;;;;;;;3.81;35.33;98392.31;5144672;27;19941;-88
2022/03/14 03:49:18;;;;;;;;;;;;;;;3.83;35.04;98404.41;5160640;27;19923;-83
2022/03/14 03:51:46;;;;;;;;;;;;;;;3.68;35.50;98409.66;5159633;27;20429;-86
2022/03/14 03:54:14;;;;;;;;;;;;;;;3.94;35.17;98408.00;5155928;27;19923;-84
2022/03/14 03:56:44;;;;;;;;;;;;;;;4.01;35.06;98418.56;5154912;27;19923;-82
2022/03/14 03:59:12;;;;;;;;;;;;;;;4.05;35.01;98428.56;5138632;27;20228;-86
2022/03/14 04:01:43;;;;;;;;;;;;;;;3.66;35.97;98423.34;5137303;27;19950;-85
2022/03/14 04:04:12;;;;;;;;;;;;;;;3.46;37.11;98435.75;5151679;27;21192;-83
2022/03/14 04:06:41;;;;;;;;;;;;;;;3.60;37.08;98440.47;5159222;27;20392;-86
2022/03/14 04:09:33;;;;;;;;;;;;;;;3.81;37.32;98446.88;5159947;27;19941;-85
2022/03/14 04:12:01;;;;;;;;;;;;;;;3.46;37.91;98463.41;5137434;27;20366;-87
2022/03/14 04:14:31;;;;;;;;;;;;;;;3.78;37.76;98462.69;5151946;27;19927;-85
2022/03/14 04:17:04;;;;;;;;;;;;;;;3.56;38.57;98463.53;5159232;27;20014;-83
2022/03/14 04:19:37;;;;;;;;;;;;;;;3.86;37.78;98471.09;5147617;27;19931;-84
2022/03/14 04:22:05;;;;;;;;;;;;;;;3.40;38.74;98459.84;5143401;27;19923;-86
2022/03/14 04:24:37;;;;;;;;;;;;;;;3.65;38.94;98470.09;5152896;27;19934;-83
2022/03/14 04:27:06;;;;;;;;;;;;;;;3.20;39.55;98483.00;5155355;27;19945;-83
2022/03/14 04:29:34;;;;;;;;;;;;;;;3.60;39.27;98483.47;5132807;27;20346;-82
2022/03/14 04:32:03;;;;;;;;;;;;;;;3.70;39.35;98487.34;5156191;27;20366;-84
2022/03/14 04:34:31;;;;;;;;;;;;;;;3.55;39.88;98491.47;5153279;27;20359;-85
2022/03/14 04:36:59;;;;;;;;;;;;;;;3.74;39.47;98493.84;5158280;27;20013;-85
2022/03/14 04:39:27;;;;;;;;;;;;;;;3.43;40.00;98496.16;5159851;27;20017;-85
2022/03/14 04:44:49;;;;;;;;;;;;;;;3.68;41.05;98492.97;5149782;27;19923;-86
2022/03/14 04:47:19;;;;;;;;;;;;;;;3.63;41.51;98488.34;5163537;27;19975;-87
2022/03/14 04:49:47;;;;;;;;;;;;;;;3.56;41.30;98490.41;5156582;27;19923;-88
2022/03/14 04:52:16;;;;;;;;;;;;;;;3.70;41.83;98488.13;5157847;27;19963;-89
2022/03/14 04:54:44;;;;;;;;;;;;;;;3.78;41.41;98489.56;5146542;27;19931;-85
2022/03/14 04:57:13;;;;;;;;;;;;;;;3.38;42.56;98480.81;5121627;27;20301;-87
2022/03/14 04:59:41;;;;;;;;;;;;;;;3.26;42.50;98500.78;5152595;27;20014;-87
2022/03/14 05:02:09;;;;;;;;;;;;;;;3.44;41.61;98496.97;5139513;27;19970;-88
2022/03/14 05:04:38;;;;;;;;;;;;;;;3.02;42.22;98508.25;5138484;27;19987;-86
2022/03/14 05:07:07;;;;;;;;;;;;;;;2.92;42.48;98506.22;5160991;27;20308;-87
2022/03/14 05:09:35;;;;;;;;;;;;;;;3.34;41.19;98509.22;5159122;27;19990;-85
2022/03/14 05:15:44;;;;;;;;;;;;;;;3.55;39.91;98504.91;5137959;27;19919;-88
2022/03/14 05:18:13;;;;;;;;;;;;;;;3.70;39.40;98509.63;5157159;27;20359;-89
2022/03/14 05:20:42;;;;;;;;;;;;;;;3.66;38.72;98509.31;5149397;27;19942;-89
2022/03/14 05:23:10;;;;;;;;;;;;;;;3.43;38.55;98501.53;5150048;27;19923;-86
2022/03/14 05:25:38;;;;;;;;;;;;;;;3.33;38.47;98498.72;5150505;27;19923;-87
2022/03/14 05:28:06;;;;;;;;;;;;;;;3.14;39.60;98501.72;5154402;27;19923;-88
2022/03/14 05:30:34;;;;;;;;;;;;;;;3.20;39.86;98520.59;5161786;27;19927;-89
2022/03/14 05:33:02;;;;;;;;;;;;;;;3.35;39.66;98536.88;5161408;27;19927;-88
2022/03/14 05:35:30;;;;;;;;;;;;;;;3.19;40.25;98543.09;5155617;27;19924;-88
2022/03/14 05:37:59;;;;;;;;;;;;;;;2.75;40.11;98554.56;5160471;27;19994;-89
2022/03/14 05:40:27;;;;;;;;;;;;;;;2.93;40.06;98569.59;5135788;27;19931;-86
2022/03/14 05:42:55;;;;;;;;;;;;;;;2.91;40.66;98578.94;5123017;27;19930;-83
2022/03/14 05:45:24;;;;;;;;;;;;;;;3.26;40.51;98594.78;5133286;27;19923;-87
2022/03/14 05:47:52;;;;;;;;;;;;;;;3.13;41.28;98601.28;5138368;27;20358;-81
2022/03/14 05:50:22;;;;;;;;;;;;;;;3.31;41.01;98608.28;5153278;27;20026;-80
2022/03/14 05:52:50;;;;;;;;;;;;;;;3.13;41.93;98634.31;5160079;27;19950;-83
2022/03/14 05:55:20;;;;;;;;;;;;;;;3.34;41.98;98646.19;5150111;27;19945;-82
2022/03/14 05:57:49;;;;;;;;;;;;;;;3.34;41.46;98648.88;5137357;27;19931;-84
2022/03/14 06:00:23;;;;;;;;;;;;;;;3.80;40.53;98646.81;5147457;27;19970;-79
2022/03/14 06:02:53;;;;;;;;;;;;;;;3.53;41.17;98649.41;5146677;27;19923;-82
2022/03/14 06:05:21;;;;;;;;;;;;;;;3.40;41.44;98653.25;5146548;27;20536;-80
2022/03/14 06:07:49;;;;;;;;;;;;;;;3.37;41.59;98655.63;5153270;27;19948;-81
2022/03/14 06:10:19;;;;;;;;;;;;;;;3.98;40.82;98651.06;5151940;27;19931;-82
2022/03/14 06:12:52;;;;;;;;;;;;;;;4.25;40.37;98647.63;5156880;27;19972;-83
2022/03/14 06:15:19;;;;;;;;;;;;;;;4.31;40.57;98654.69;5130639;27;20731;-78
2022/03/14 06:17:47;;;;;;;;;;;;;;;4.23;40.97;98673.97;5152169;27;19927;-76
2022/03/14 06:20:17;;;;;;;;;;;;;;;4.19;40.92;98674.44;5134970;27;19923;-84
2022/03/14 06:22:46;;;;;;;;;;;;;;;4.53;40.26;98685.06;5149713;27;19923;-78
2022/03/14 06:25:17;;;;;;;;;;;;;;;4.47;40.55;98686.06;5128733;27;19991;-81
2022/03/14 06:27:46;;;;;;;;;;;;;;;4.52;40.67;98694.19;5154904;27;19946;-85
2022/03/14 06:30:14;;;;;;;;;;;;;;;4.66;40.82;98695.44;5148577;27;20465;-82
2022/03/14 06:32:43;;;;;;;;;;;;;;;4.71;40.62;98698.16;5129257;27;19938;-87
2022/03/14 06:35:12;;;;;;;;;;;;;;;4.49;42.01;98710.84;5147943;27;19930;-85
2022/03/14 06:37:40;;;;;;;;;;;;;;;4.67;41.30;98713.19;5137643;27;20425;-83
2022/03/14 06:40:33;;;;;;;;;;;;;;;4.82;41.02;98725.19;5159704;27;20561;-83
2022/03/14 06:43:03;;;;;;;;;;;;;;;4.72;41.69;98715.94;5155162;27;20009;-86
2022/03/14 06:45:32;;;;;;;;;;;;;;;4.39;42.58;98716.94;5161278;27;19922;-85
2022/03/14 06:48:01;;;;;;;;;;;;;;;4.42;42.73;98719.13;5139786;27;19929;-78
2022/03/14 06:53:24;;;;;;;;;;;;;;;4.74;44.34;98739.94;5152686;27;19923;-84
2022/03/14 06:55:52;;;;;;;;;;;;;;;4.79;44.00;98744.53;5152447;27;19927;-83
2022/03/14 06:58:22;;;;;;;;;;;;;;;4.58;44.61;98752.41;5156842;27;20385;-85
2022/03/14 07:00:50;;;;;;;;;;;;;;;4.71;44.89;98743.94;5152091;27;20358;-85
2022/03/14 07:03:18;;;;;;;;;;;;;;;4.40;47.81;98745.44;5148110;27;19973;-86
2022/03/14 07:05:46;;;;;;;;;;;;;;;4.16;48.84;98760.22;5150030;27;19938;-86
2022/03/14 07:08:17;;;;;;;;;;;;;;;4.29;48.90;98764.41;5153448;27;20393;-89
2022/03/14 07:10:45;;;;;;;;;;;;;;;4.40;50.16;98766.16;5157359;27;20014;-87
2022/03/14 07:13:14;;;;;;;;;;;;;;;4.07;51.51;98773.28;5141207;27;20360;-89
2022/03/14 07:15:44;;;;;;;;;;;;;;;4.09;52.96;98781.09;5161220;27;19930;-76
2022/03/14 07:18:12;;;;;;;;;;;;;;;4.00;53.87;98794.16;5136436;27;20501;-83
2022/03/14 07:20:40;;;;;;;;;;;;;;;4.06;54.39;98795.84;5162329;27;19923;-81
2022/03/14 07:23:09;;;;;;;;;;;;;;;3.94;54.72;98800.50;5156278;27;20026;-81
2022/03/14 07:25:38;;;;;;;;;;;;;;;3.93;55.17;98809.63;5155308;27;19923;-82
2022/03/14 07:28:08;;;;;;;;;;;;;;;4.23;53.33;98811.13;5129096;27;19923;-78
2022/03/14 07:30:36;;;;;;;;;;;;;;;4.14;54.21;98808.84;5127854;27;19924;-82
2022/03/14 07:33:05;;;;;;;;;;;;;;;4.61;52.49;98816.47;5134433;27;20314;-90
2022/03/14 07:35:36;;;;;;;;;;;;;;;4.73;50.48;98819.84;5125631;27;19949;-79
2022/03/14 07:38:04;;;;;;;;;;;;;;;4.81;50.79;98812.41;5144765;27;20383;-80
2022/03/14 07:40:32;;;;;;;;;;;;;;;4.76;51.95;98812.34;5127843;27;19930;-82
2022/03/14 07:43:01;;;;;;;;;;;;;;;4.72;53.74;98822.81;5132890;27;19924;-85
2022/03/14 07:45:32;;;;;;;;;;;;;;;4.84;52.01;98815.41;5135107;27;20003;-82
2022/03/14 07:48:07;;;;;;;;;;;;;;;4.61;55.55;98821.88;5136004;27;20277;-81
2022/03/14 07:50:38;;;;;;;;;;;;;;;4.49;56.58;98821.19;5127531;27;19930;-82
2022/03/14 07:53:07;;;;;;;;;;;;;;;4.64;55.30;98818.69;5129408;27;19927;-81
2022/03/14 07:55:35;;;;;;;;;;;;;;;5.06;54.55;98807.31;5137900;27;20018;-80
2022/03/14 07:58:03;;;;;;;;;;;;;;;5.24;53.42;98815.03;5122258;27;20300;-84
2022/03/14 08:00:31;;;;;;;;;;;;;;;5.38;53.51;98814.63;5138790;27;19931;-85
2022/03/14 08:02:59;;;;;;;;;;;;;;;5.46;54.55;98822.25;5132769;27;19923;-83
2022/03/14 08:06:00;;;;;;;;;;;;;;;5.39;55.13;98833.25;5135479;27;19930;-85
2022/03/14 08:08:31;;;;;;;;;;;;;;;5.16;57.83;98845.13;5127582;27;19961;-81
2022/03/14 08:11:01;;;;;;;;;;;;;;;5.08;57.68;98853.66;5134363;27;19932;-80
2022/03/14 08:13:34;;;;;;;;;;;;;;;5.14;57.96;98854.53;5134253;27;19955;-80
2022/03/14 08:16:04;;;;;;;;;;;;;;;5.23;57.70;98856.53;5141367;27;20346;-85
2022/03/14 08:18:32;;;;;;;;;;;;;;;5.13;59.24;98861.00;5136563;27;19930;-78
2022/03/14 08:21:05;;;;;;;;;;;;;;;5.05;60.14;98856.03;5129985;27;19948;-82
2022/03/14 08:23:35;;;;;;;;;;;;;;;5.11;59.35;98872.00;5126908;27;19931;-84
2022/03/14 08:26:06;;;;;;;;;;;;;;;5.46;58.33;98868.06;5136094;27;19927;-84
2022/03/14 08:28:34;;;;;;;;;;;;;;;5.87;57.38;98863.06;5141749;27;20392;-83
2022/03/14 08:31:04;;;;;;;;;;;;;;;5.85;57.34;98862.47;5152065;27;20017;-86
2022/03/14 08:33:33;;;;;;;;;;;;;;;5.64;59.04;98856.91;5149737;27;20288;-86
2022/03/14 08:36:04;;;;;;;;;;;;;;;5.75;58.95;98877.53;5156775;27;19954;-86
2022/03/14 08:41:45;;;;;;;;;;;;;;;6.01;60.75;98883.13;5157285;27;19931;-85
2022/03/14 08:44:13;;;;;;;;;;;;;;;6.09;61.06;98885.38;5112379;27;20007;-87
2022/03/14 08:46:41;;;;;;;;;;;;;;;6.05;62.24;98884.25;5154229;27;19931;-85
2022/03/14 08:49:09;;;;;;;;;;;;;;;6.32;60.55;98884.19;5158129;27;19934;-85
2022/03/14 08:51:40;;;;;;;;;;;;;;;6.56;60.17;98880.03;5116495;27;19927;-85
2022/03/14 08:54:10;;;;;;;;;;;;;;;6.80;59.52;98888.53;5136423;27;19923;-85
2022/03/14 08:56:38;;;;;;;;;;;;;;;7.05;59.55;98903.22;5136457;27;19924;-82
2022/03/14 08:59:06;;;;;;;;;;;;;;;7.12;60.21;98906.50;5147755;27;20001;-84
2022/03/14 09:01:35;;;;;;;;;;;;;;;7.47;58.96;98911.22;5153529;27;20026;-86
2022/03/14 09:04:03;;;;;;;;;;;;;;;7.59;57.39;98900.16;5148891;27;19923;-86
2022/03/14 09:06:36;;;;;;;;;;;;;;;7.49;59.48;98919.06;5155066;27;20041;-86
2022/03/14 09:09:06;;;;;;;;;;;;;;;7.24;60.94;98920.59;5145827;27;20440;-86
2022/03/14 09:11:33;;;;;;;;;;;;;;;7.14;61.18;98923.28;5153958;27;20000;-83
2022/03/14 09:14:01;;;;;;;;;;;;;;;7.42;60.09;98930.13;5151789;27;20311;-85
2022/03/14 09:16:31;;;;;;;;;;;;;;;7.32;61.05;98933.59;5139078;27;19992;-86
2022/03/14 09:18:59;;;;;;;;;;;;;;;7.26;62.43;98933.84;5149893;27;20366;-85
2022/03/14 09:21:27;;;;;;;;;;;;;;;7.46;61.86;98931.22;5151282;27;20026;-85
2022/03/14 09:23:54;;;;;;;;;;;;;;;7.86;61.39;98929.69;5152821;27;20387;-82
2022/03/14 09:26:23;;;;;;;;;;;;;;;8.26;59.23;98934.31;5154513;27;19922;-85
2022/03/14 09:28:51;;;;;;;;;;;;;;;8.08;61.67;98938.34;5144808;27;19923;-86
2022/03/14 09:31:21;;;;;;;;;;;;;;;8.01;61.09;98939.72;5153019;27;19942;-86
2022/03/14 09:33:49;;;;;;;;;;;;;;;8.21;61.14;98941.63;5157540;27;19991;-85
2022/03/14 09:36:43;;;;;;;;;;;;;;;8.23;60.99;98937.56;5154023;27;19923;-86
2022/03/14 09:39:13;;;;;;;;;;;;;;;8.12;63.09;98941.34;5163356;27;19949;-84
2022/03/14 09:41:43;;;;;;;;;;;;;;;8.25;62.05;98948.09;5140604;27;19926;-85
2022/03/14 09:44:11;;;;;;;;;;;;;;;8.32;63.08;98945.97;5154426;27;19923;-86
2022/03/14 09:46:40;;;;;;;;;;;;;;;8.37;63.56;98959.53;5152858;27;19928;-84
2022/03/14 09:49:09;;;;;;;;;;;;;;;8.30;63.89;98967.88;5152706;27;20579;-86
2022/03/14 09:51:39;;;;;;;;;;;;;;;8.44;63.11;98961.97;5151632;27;19923;-87
2022/03/14 09:54:09;;;;;;;;;;;;;;;8.85;61.38;98962.72;5147830;27;19923;-87
2022/03/14 09:56:41;;;;;;;;;;;;;;;8.82;62.32;98966.78;5104746;27;20662;-86
2022/03/14 09:59:11;;;;;;;;;;;;;;;8.84;62.42;98964.63;5139990;27;19985;-85
2022/03/14 10:01:39;;;;;;;;;;;;;;;8.93;60.76;98962.16;5147963;27;19976;-86
2022/03/14 10:04:08;;;;;;;;;;;;;;;9.06;60.37;98971.63;5151813;27;19930;-77
2022/03/14 10:06:40;;;;;;;;;;;;;;;8.83;60.21;98975.72;5146839;27;20040;-82
2022/03/14 10:09:08;;;;;;;;;;;;;;;8.78;59.61;98976.53;5150938;27;19923;-82
2022/03/14 10:11:37;;;;;;;;;;;;;;;8.65;60.00;98987.94;5157991;27;19958;-82
2022/03/14 10:14:05;;;;;;;;;;;;;;;8.48;60.60;98974.69;5159073;27;19955;-83
2022/03/14 10:16:35;;;;;;;;;;;;;;;8.53;60.30;98982.81;5160320;27;19926;-83
2022/03/14 10:19:05;;;;;;;;;;;;;;;8.45;59.82;98987.94;5148580;27;20397;-82
2022/03/14 10:21:34;;;;;;;;;;;;;;;8.50;59.51;98994.19;5140589;27;20014;-84
2022/03/14 10:24:03;;;;;;;;;;;;;;;8.45;59.39;98998.78;5145104;27;20473;-80
2022/03/14 10:26:33;;;;;;;;;;;;;;;8.36;59.81;99004.75;5145089;27;19927;-85
2022/03/14 10:29:01;;;;;;;;;;;;;;;8.66;58.44;99003.13;5124845;27;20352;-83
2022/03/14 10:31:34;;;;;;;;;;;;;;;8.93;58.09;99002.81;5145720;27;20396;-80
2022/03/14 10:34:04;;;;;;;;;;;;;;;8.75;57.59;99014.22;5148770;27;19931;-82
2022/03/14 10:36:42;;;;;;;;;;;;;;;8.72;57.27;99007.44;5150807;27;19930;-84
2022/03/14 10:39:13;;;;;;;;;;;;;;;8.64;56.80;99018.84;5161512;27;19923;-83
2022/03/14 10:44:54;;;;;;;;;;;;;;;8.72;56.04;99018.28;5160538;27;19951;-79
2022/03/14 10:47:26;;;;;;;;;;;;;;;8.72;56.41;99020.97;5149474;27;19931;-80
2022/03/14 10:49:56;;;;;;;;;;;;;;;8.84;55.32;99024.25;5160614;27;19923;-81
2022/03/14 10:52:24;;;;;;;;;;;;;;;8.75;56.30;99028.59;5148103;27;19930;-79
2022/03/14 10:54:52;;;;;;;;;;;;;;;8.83;56.73;99038.84;5158045;27;20440;-76
2022/03/14 10:57:22;;;;;;;;;;;;;;;8.77;56.23;99042.66;5152080;27;19923;-91
2022/03/14 10:59:52;;;;;;;;;;;;;;;8.90;55.28;99047.53;5152247;27;19981;-80
2022/03/14 11:02:21;;;;;;;;;;;;;;;8.89;55.87;99043.22;5154186;27;19923;-81
2022/03/14 11:04:49;;;;;;;;;;;;;;;8.92;56.25;99039.94;5150960;27;19923;-81
2022/03/14 11:07:19;;;;;;;;;;;;;;;8.92;56.86;99036.41;5149079;27;19930;-75
2022/03/14 11:09:48;;;;;;;;;;;;;;;9.03;56.01;99039.94;5167227;27;20009;-78
2022/03/14 11:12:16;;;;;;;;;;;;;;;9.03;56.06;99043.44;5134337;27;19986;-74
2022/03/14 11:14:51;;;;;;;;;;;;;;;9.15;55.40;99045.88;5150948;27;20264;-75
2022/03/14 11:17:20;;;;;;;;;;;;;;;8.98;56.31;99045.34;5129674;27;19923;-80
2022/03/14 11:19:48;;;;;;;;;;;;;;;9.00;56.13;99044.03;5124708;27;19923;-79
2022/03/14 11:22:17;;;;;;;;;;;;;;;8.97;56.47;99047.25;5155502;27;19933;-78
2022/03/14 11:24:47;;;;;;;;;;;;;;;9.06;56.64;99056.47;5154477;27;20372;-77
2022/03/14 11:27:16;;;;;;;;;;;;;;;9.09;56.25;99053.19;5147129;27;19923;-77
2022/03/14 11:29:44;;;;;;;;;;;;;;;9.31;55.89;99047.47;5129239;27;19980;-74
2022/03/14 11:32:12;;;;;;;;;;;;;;;9.33;55.59;99044.50;5128955;27;20004;-77
2022/03/14 11:35:00;;;;;;;;;;;;;;;9.51;56.17;99051.22;5128087;27;19959;-78
2022/03/14 11:37:29;;;;;;;;;;;;;;;9.62;55.90;99047.38;5127577;27;20342;-76
2022/03/14 11:40:03;;;;;;;;;;;;;;;9.69;56.02;99042.44;5136259;27;20363;-76
2022/03/14 11:42:30;;;;;;;;;;;;;;;9.45;55.54;99043.09;5128599;27;20388;-80
2022/03/14 11:45:03;;;;;;;;;;;;;;;9.47;55.51;99042.81;5132968;27;20010;-82
2022/03/14 11:47:31;;;;;;;;;;;;;;;9.61;55.03;99048.47;5132241;27;19923;-82
2022/03/14 11:50:01;;;;;;;;;;;;;;;9.74;54.91;99045.16;5127989;27;19932;-82
2022/03/14 11:52:35;;;;;;;;;;;;;;;10.14;53.24;99044.16;5132834;27;19924;-87
2022/03/14 11:55:15;;;;;;;;;;;;;;;10.14;53.46;99041.44;5134701;27;19949;-88
2022/03/14 11:57:44;;;;;;;;;;;;;;;10.45;52.80;99042.06;5133458;27;19931;-80
2022/03/14 12:00:35;;;;;;;;;;;;;;;10.88;51.02;99039.56;5134410;27;19927;-80
2022/03/14 12:03:10;;;;;;;;;;;;;;;10.81;50.69;99035.53;5124509;27;19953;-79
2022/03/14 12:05:48;;;;;;;;;;;;;;;11.21;49.82;99028.91;5138989;27;19965;-78
2022/03/14 12:08:34;;;;;;;;;;;;;;;11.06;49.88;99027.16;5137343;27;19923;-80
2022/03/14 12:11:17;;;;;;;;;;;;;;;10.54;50.78;99019.72;5135195;27;19942;-80
2022/03/14 12:13:47;;;;;;;;;;;;;;;10.26;51.00;99024.00;5136286;27;19934;-77
2022/03/14 12:16:30;;;;;;;;;;;;;;;10.21;51.13;99033.78;5135561;27;20026;-78
2022/03/14 12:18:59;;;;;;;;;;;;;;;10.57;50.00;99030.84;5118902;27;19924;-76
2022/03/14 12:21:52;;;;;;;;;;;;;;;10.77;49.22;99019.00;5130529;27;19958;-76
2022/03/14 12:24:20;;;;;;;;;;;;;;;10.97;48.70;99018.81;5119647;27;19923;-74
2022/03/14 12:26:49;;;;;;;;;;;;;;;10.76;49.03;99017.38;5125997;27;21223;-86
2022/03/14 12:29:44;;;;;;;;;;;;;;;11.06;47.93;99037.22;5124938;27;19934;-74
2022/03/14 12:32:29;;;;;;;;;;;;;;;10.61;47.67;99014.78;5034118;28;19925;-75
2022/03/14 12:34:58;;;;;;;;;;;;;;;11.07;47.29;99017.88;5022534;28;21498;-76
2022/03/14 12:37:26;;;;;;;;;;;;;;;11.17;45.38;99022.41;5042893;28;20003;-75
2022/03/14 12:39:59;;;;;;;;;;;;;;;10.86;45.32;99017.25;5036319;28;19933;-77
2022/03/14 12:42:27;;;;;;;;;;;;;;;10.78;45.96;99028.78;5040851;28;19929;-89
2022/03/14 12:45:14;;;;;;;;;;;;;;;10.61;46.40;99023.75;5039237;28;20239;-76
2022/03/14 12:47:49;;;;;;;;;;;;;;;10.62;46.45;99022.66;5042297;28;19929;-75
2022/03/14 12:50:32;;;;;;;;;;;;;;;10.63;46.18;99018.03;5036615;28;19925;-76
2022/03/14 12:53:37;;;;;;;;;;;;;;;10.91;46.46;99008.25;5030364;28;19932;-78
2022/03/14 12:56:11;;;;;;;;;;;;;;;10.85;45.92;99009.41;5032905;28;20090;-76
2022/03/14 12:58:40;;;;;;;;;;;;;;;10.88;45.57;99001.50;5040624;28;19979;-76
2022/03/14 13:01:10;;;;;;;;;;;;;;;11.10;45.65;99002.91;5036622;28;19931;-74
2022/03/14 13:03:39;;;;;;;;;;;;;;;10.86;45.96;99005.59;5036587;28;20333;-74
2022/03/14 13:06:09;;;;;;;;;;;;;;;11.10;46.12;99002.91;5027140;28;19925;-74
2022/03/14 13:08:44;;;;;;;;;;;;;;;11.52;44.96;98997.53;5096497;27;20388;-74
2022/03/14 13:11:17;;;;;;;;;;;;;;;11.47;44.77;98992.16;5141053;27;20316;-74
2022/03/14 13:13:45;;;;;;;;;;;;;;;11.53;44.48;98996.44;5131931;27;19947;-73
2022/03/14 13:16:14;;;;;;;;;;;;;;;11.21;44.76;99001.72;5124821;27;19927;-74
2022/03/14 13:18:44;;;;;;;;;;;;;;;11.09;45.58;98998.59;5132853;27;20143;-75
2022/03/14 13:21:12;;;;;;;;;;;;;;;10.98;45.83;99004.13;5127409;27;19972;-84
2022/03/14 13:23:40;;;;;;;;;;;;;;;11.20;45.51;99005.53;5126252;27;20282;-82
2022/03/14 13:26:09;;;;;;;;;;;;;;;11.23;45.18;99008.47;5120593;27;19924;-81
2022/03/14 13:28:38;;;;;;;;;;;;;;;11.13;46.48;99018.66;5138152;27;20069;-83